Time;durP1;ratioP1;P1;durP2;ratioP2;P2;SDS_P1;SDS_P2;PMS_P1;PMS_P2;Temp;Humidity;BMP_temperature;BMP_pressure;BME280_temperature;BME280_humidity;BME280_pressure;Samples;Min_cycle;Max_cycle;Signal;HPM_P1;HPM_P2
2023/08/01 00:00:30;;;;;;;10.95;10.55;;;18.90;99.90;;;;;;5042897;28;20208;-68
2023/08/01 00:02:57;;;;;;;12.48;12.07;;;19.00;99.90;;;;;;5041932;28;20327;-68
2023/08/01 00:05:24;;;;;;;11.45;11.05;;;19.00;99.90;;;;;;5038997;28;20222;-65
2023/08/01 00:07:52;;;;;;;13.40;12.90;;;19.00;99.90;;;;;;5038213;28;20720;-67
2023/08/01 00:10:19;;;;;;;12.57;12.13;;;19.10;99.90;;;;;;5039085;28;20196;-68
2023/08/01 00:12:46;;;;;;;12.90;12.40;;;19.00;99.90;;;;;;5040544;28;20674;-68
2023/08/01 00:15:14;;;;;;;12.65;12.23;;;19.10;99.90;;;;;;5038755;28;20682;-67
2023/08/01 00:17:41;;;;;;;11.50;11.10;;;19.00;99.90;;;;;;5034143;28;20228;-65
2023/08/01 00:20:09;;;;;;;10.70;10.30;;;19.00;99.90;;;;;;5028542;28;20211;-68
2023/08/01 00:22:36;;;;;;;10.40;10.00;;;19.00;99.90;;;;;;5029608;28;20207;-69
2023/08/01 00:25:03;;;;;;;11.15;10.75;;;19.00;99.90;;;;;;5029865;28;20231;-68
2023/08/01 00:27:32;;;;;;;9.68;9.27;;;19.00;99.90;;;;;;5029803;28;20219;-67
2023/08/01 00:29:58;;;;;;;13.48;12.98;;;19.00;99.90;;;;;;5027286;28;20209;-68
2023/08/01 00:32:26;;;;;;;11.18;10.77;;;19.10;99.90;;;;;;5030710;28;20214;-66
2023/08/01 00:34:53;;;;;;;11.83;11.43;;;19.20;99.90;;;;;;5030172;28;20291;-66
2023/08/01 00:37:20;;;;;;;10.60;10.23;;;19.20;99.90;;;;;;5031007;28;20200;-68
2023/08/01 00:39:47;;;;;;;10.65;10.27;;;19.30;99.90;;;;;;5033646;28;20227;-68
2023/08/01 00:42:14;;;;;;;11.07;10.68;;;19.30;99.90;;;;;;5040770;28;20295;-66
2023/08/01 00:44:41;;;;;;;11.50;11.10;;;19.30;99.90;;;;;;5041579;28;20236;-66
2023/08/01 00:47:08;;;;;;;11.73;11.32;;;19.30;99.90;;;;;;5043320;28;20554;-66
2023/08/01 00:49:36;;;;;;;11.68;11.27;;;19.30;99.90;;;;;;5029959;28;20229;-67
2023/08/01 00:52:03;;;;;;;12.00;11.60;;;19.30;99.90;;;;;;5030874;28;20298;-68
2023/08/01 00:54:35;;;;;;;11.63;11.23;;;19.30;99.90;;;;;;5029671;28;20207;-68
2023/08/01 00:57:02;;;;;;;11.30;10.90;;;19.30;99.90;;;;;;5041682;28;20223;-69
2023/08/01 00:59:29;;;;;;;11.75;11.25;;;19.30;99.90;;;;;;5048087;28;20227;-70
2023/08/01 01:01:56;;;;;;;11.35;10.95;;;19.30;99.90;;;;;;5049700;28;20206;-68
2023/08/01 01:04:23;;;;;;;11.95;11.45;;;19.30;99.90;;;;;;5050224;28;20214;-69
2023/08/01 01:06:56;;;;;;;12.52;12.13;;;19.30;99.90;;;;;;5042876;28;20214;-66
2023/08/01 01:09:23;;;;;;;12.90;12.40;;;19.30;99.90;;;;;;5029528;28;20220;-68
2023/08/01 01:11:50;;;;;;;12.02;11.63;;;19.20;99.90;;;;;;5031673;28;20201;-66
2023/08/01 01:14:17;;;;;;;12.93;12.48;;;19.20;99.90;;;;;;5035117;28;20291;-68
2023/08/01 01:16:44;;;;;;;12.38;11.98;;;19.20;99.90;;;;;;5034572;28;20641;-68
2023/08/01 01:19:10;;;;;;;12.23;11.83;;;19.10;99.90;;;;;;5034004;28;20243;-65
2023/08/01 01:21:41;;;;;;;11.95;11.45;;;19.20;99.90;;;;;;5033832;28;20308;-70
2023/08/01 01:24:11;;;;;;;12.27;11.88;;;19.20;99.90;;;;;;5033786;28;20217;-69
2023/08/01 01:26:38;;;;;;;11.30;10.90;;;19.20;99.90;;;;;;5036883;28;20299;-68
2023/08/01 01:29:06;;;;;;;11.02;10.63;;;19.30;99.90;;;;;;5049421;28;20231;-63
2023/08/01 01:31:34;;;;;;;11.35;10.95;;;19.30;99.90;;;;;;5053413;28;20208;-68
2023/08/01 01:34:01;;;;;;;11.52;11.02;;;19.30;99.90;;;;;;5052578;28;20957;-69
2023/08/01 01:36:27;;;;;;;11.57;11.17;;;19.30;99.90;;;;;;5052700;28;20214;-68
2023/08/01 01:38:56;;;;;;;11.32;10.93;;;19.30;99.90;;;;;;5052209;28;20234;-68
2023/08/01 01:41:23;;;;;;;11.10;10.70;;;19.40;99.90;;;;;;5052103;28;20303;-68
2023/08/01 01:43:50;;;;;;;10.35;9.95;;;19.40;99.90;;;;;;5052367;28;20220;-67
2023/08/01 01:46:16;;;;;;;11.30;10.90;;;19.40;99.90;;;;;;5052427;28;20203;-68
2023/08/01 01:48:43;;;;;;;11.70;11.30;;;19.50;99.90;;;;;;5052348;28;20232;-67
2023/08/01 01:51:10;;;;;;;11.55;11.15;;;19.50;99.90;;;;;;5047386;28;20218;-67
2023/08/01 01:53:37;;;;;;;11.10;10.70;;;19.50;99.90;;;;;;5053913;28;20207;-68
2023/08/01 01:56:05;;;;;;;10.30;9.90;;;19.50;99.90;;;;;;5053056;28;20580;-67
2023/08/01 01:58:32;;;;;;;11.35;10.95;;;19.50;99.90;;;;;;5052640;28;20224;-67
2023/08/01 02:00:59;;;;;;;11.70;11.30;;;19.50;99.90;;;;;;5051627;28;20313;-68
2023/08/01 02:03:25;;;;;;;11.37;10.97;;;19.50;99.90;;;;;;5052475;28;20263;-67
2023/08/01 02:05:52;;;;;;;11.48;11.07;;;19.60;99.90;;;;;;5051495;28;20303;-68
2023/08/01 02:08:19;;;;;;;11.02;10.63;;;19.60;99.90;;;;;;5051817;28;20238;-67
2023/08/01 02:10:46;;;;;;;11.15;10.75;;;19.60;99.90;;;;;;5050887;28;20768;-66
2023/08/01 02:13:14;;;;;;;13.23;12.73;;;19.70;99.90;;;;;;5051528;28;20192;-68
2023/08/01 02:15:41;;;;;;;28.92;27.92;;;19.70;99.90;;;;;;5051820;28;20220;-68
2023/08/01 02:18:08;;;;;;;22.50;21.73;;;19.90;99.90;;;;;;5051603;28;20225;-67
2023/08/01 02:20:34;;;;;;;24.60;23.73;;;20.00;99.90;;;;;;5050945;28;20215;-68
2023/08/01 02:23:01;;;;;;;34.47;33.28;;;20.10;99.90;;;;;;5051145;28;20214;-68
2023/08/01 02:25:28;;;;;;;26.40;25.50;;;20.20;99.90;;;;;;5051289;28;20238;-67
2023/08/01 02:27:55;;;;;;;25.37;24.47;;;20.30;99.90;;;;;;5050599;28;20231;-68
2023/08/01 02:30:23;;;;;;;16.95;16.35;;;20.40;99.90;;;;;;5051952;28;20188;-68
2023/08/01 02:32:50;;;;;;;13.27;12.77;;;20.50;99.90;;;;;;5042447;28;20196;-67
2023/08/01 02:35:17;;;;;;;13.15;12.70;;;20.30;99.90;;;;;;5032316;28;20287;-67
2023/08/01 02:37:44;;;;;;;11.80;11.35;;;20.20;99.90;;;;;;5031459;28;20674;-67
2023/08/01 02:40:12;;;;;;;12.70;12.30;;;20.10;99.90;;;;;;5030987;28;20251;-65
2023/08/01 02:42:39;;;;;;;10.87;10.47;;;20.00;99.90;;;;;;5031922;28;20205;-65
2023/08/01 02:45:06;;;;;;;13.40;12.90;;;20.00;99.90;;;;;;5031424;28;20223;-70
2023/08/01 02:47:34;;;;;;;16.77;16.08;;;19.90;99.90;;;;;;5031329;28;20675;-70
2023/08/01 02:50:01;;;;;;;10.75;10.35;;;19.90;99.90;;;;;;5030190;28;20212;-67
2023/08/01 02:52:28;;;;;;;10.70;10.30;;;19.80;99.90;;;;;;5031113;28;20215;-67
2023/08/01 02:54:55;;;;;;;10.10;9.80;;;19.70;99.90;;;;;;5030970;28;20223;-68
2023/08/01 02:57:22;;;;;;;9.98;9.68;;;19.70;99.90;;;;;;5031362;28;20215;-69
2023/08/01 02:59:48;;;;;;;10.57;10.17;;;19.70;99.90;;;;;;5030069;28;20232;-67
2023/08/01 03:02:15;;;;;;;10.53;10.13;;;19.70;99.90;;;;;;5030706;28;20208;-67
2023/08/01 03:04:43;;;;;;;10.60;10.20;;;19.70;99.90;;;;;;5029397;28;20702;-68
2023/08/01 03:07:10;;;;;;;11.02;10.63;;;19.60;99.90;;;;;;5031011;28;20906;-68
2023/08/01 03:09:37;;;;;;;10.57;10.18;;;19.60;99.90;;;;;;5030231;28;20228;-67
2023/08/01 03:12:04;;;;;;;11.23;10.83;;;19.60;99.90;;;;;;5030809;28;20219;-66
2023/08/01 03:14:33;;;;;;;11.27;10.88;;;19.60;99.90;;;;;;5030897;28;20580;-66
2023/08/01 03:16:59;;;;;;;10.27;9.87;;;19.60;99.90;;;;;;5031168;28;20614;-65
2023/08/01 03:19:26;;;;;;;10.07;9.77;;;19.60;99.90;;;;;;5029658;28;20224;-66
2023/08/01 03:21:54;;;;;;;10.82;10.43;;;19.60;99.90;;;;;;5030813;28;20201;-67
2023/08/01 03:24:21;;;;;;;10.90;10.50;;;19.60;99.90;;;;;;5030684;28;20233;-66
2023/08/01 03:26:48;;;;;;;12.00;11.60;;;19.60;99.90;;;;;;5030788;28;20205;-67
2023/08/01 03:29:15;;;;;;;11.70;11.30;;;19.70;99.90;;;;;;5029531;28;20240;-67
2023/08/01 03:31:41;;;;;;;11.38;10.98;;;19.70;99.90;;;;;;5031474;28;20223;-66
2023/08/01 03:34:08;;;;;;;12.75;12.30;;;19.80;99.90;;;;;;5030470;28;20681;-67
2023/08/01 03:36:35;;;;;;;12.97;12.47;;;19.80;99.90;;;;;;5030917;28;20308;-64
2023/08/01 03:39:04;;;;;;;11.40;11.00;;;19.90;99.90;;;;;;5029853;28;20319;-65
2023/08/01 03:41:32;;;;;;;12.47;12.03;;;19.90;99.90;;;;;;5030138;28;20215;-64
2023/08/01 03:43:59;;;;;;;12.73;12.23;;;19.80;99.90;;;;;;5030961;28;20221;-65
2023/08/01 03:46:25;;;;;;;11.75;11.35;;;19.80;99.90;;;;;;5030781;28;20674;-64
2023/08/01 03:48:52;;;;;;;12.33;11.87;;;19.90;99.90;;;;;;5030377;28;20831;-64
2023/08/01 03:51:20;;;;;;;11.68;11.27;;;19.80;99.90;;;;;;5029545;28;20197;-64
2023/08/01 03:53:47;;;;;;;10.80;10.40;;;19.80;99.90;;;;;;5030365;28;20240;-65
2023/08/01 03:56:15;;;;;;;12.97;12.47;;;19.70;99.90;;;;;;5030151;28;20277;-64
2023/08/01 03:58:42;;;;;;;13.10;12.60;;;19.70;99.90;;;;;;5030151;28;20646;-64
2023/08/01 04:01:09;;;;;;;13.43;12.93;;;19.50;99.90;;;;;;5028948;28;20254;-65
2023/08/01 04:03:36;;;;;;;13.13;12.63;;;19.40;99.90;;;;;;5030228;28;20214;-64
2023/08/01 04:06:03;;;;;;;15.20;14.70;;;19.30;99.90;;;;;;5028550;28;20914;-64
2023/08/01 04:08:29;;;;;;;36.07;32.97;;;19.10;99.90;;;;;;5029981;28;20232;-64
2023/08/01 04:10:56;;;;;;;17.17;16.43;;;19.00;99.90;;;;;;5028671;28;20794;-65
2023/08/01 04:13:24;;;;;;;17.17;16.57;;;18.90;99.90;;;;;;5029687;28;20214;-65
2023/08/01 04:15:51;;;;;;;18.03;17.37;;;18.80;99.90;;;;;;5029974;28;20208;-65
2023/08/01 04:18:18;;;;;;;13.30;12.82;;;18.80;99.90;;;;;;5029680;28;20228;-64
2023/08/01 04:20:45;;;;;;;12.27;11.77;;;18.80;99.90;;;;;;5028703;28;20208;-65
2023/08/01 04:23:11;;;;;;;12.67;12.23;;;18.80;99.90;;;;;;5030120;28;20616;-65
2023/08/01 04:25:40;;;;;;;11.83;11.43;;;18.90;99.90;;;;;;5042602;28;20306;-65
2023/08/01 04:28:07;;;;;;;11.37;10.97;;;18.90;99.90;;;;;;5046335;28;20889;-63
2023/08/01 04:30:38;;;;;;;11.63;11.13;;;18.90;99.90;;;;;;5048901;28;20300;-65
2023/08/01 04:33:05;;;;;;;10.97;10.57;;;19.00;99.90;;;;;;5049592;28;20236;-64
2023/08/01 04:35:31;;;;;;;10.13;9.73;;;19.00;99.90;;;;;;5049054;28;20203;-66
2023/08/01 04:37:58;;;;;;;12.03;11.53;;;19.00;99.90;;;;;;5048041;28;20226;-64
2023/08/01 04:40:25;;;;;;;10.40;10.00;;;19.00;99.90;;;;;;5049737;28;20210;-64
2023/08/01 04:42:52;;;;;;;12.07;11.67;;;19.00;99.90;;;;;;5050490;28;20204;-64
2023/08/01 04:45:19;;;;;;;11.85;11.45;;;19.00;99.90;;;;;;5050864;28;20293;-65
2023/08/01 04:47:47;;;;;;;11.60;11.20;;;19.00;99.90;;;;;;5052718;28;20203;-65
2023/08/01 04:50:14;;;;;;;12.33;11.93;;;19.00;99.90;;;;;;5053561;28;20204;-65
2023/08/01 04:52:40;;;;;;;12.93;12.47;;;19.10;99.90;;;;;;5053945;28;20204;-64
2023/08/01 04:55:08;;;;;;;10.73;10.33;;;19.10;99.90;;;;;;5052450;28;20210;-64
2023/08/01 04:57:35;;;;;;;11.60;11.20;;;19.10;99.90;;;;;;5034013;28;20212;-64
2023/08/01 05:00:02;;;;;;;11.23;10.83;;;19.10;99.90;;;;;;5033804;28;20209;-65
2023/08/01 05:02:28;;;;;;;11.70;11.30;;;19.20;99.90;;;;;;5034578;28;20547;-66
2023/08/01 05:04:56;;;;;;;13.97;13.47;;;19.30;99.90;;;;;;5034330;28;20225;-65
2023/08/01 05:07:23;;;;;;;15.20;14.63;;;19.40;99.90;;;;;;5038509;28;20875;-65
2023/08/01 05:09:50;;;;;;;17.23;16.63;;;19.40;99.90;;;;;;5053347;28;20308;-65
2023/08/01 05:12:17;;;;;;;17.00;16.40;;;19.40;99.90;;;;;;5053457;28;20196;-65
2023/08/01 05:14:44;;;;;;;15.27;14.77;;;19.50;99.90;;;;;;5052986;28;20200;-64
2023/08/01 05:17:10;;;;;;;27.90;26.90;;;19.50;99.90;;;;;;5042278;28;20208;-63
2023/08/01 05:19:37;;;;;;;20.08;19.38;;;19.60;99.90;;;;;;5049299;28;20227;-64
2023/08/01 05:22:06;;;;;;;19.80;19.10;;;19.60;99.90;;;;;;5045150;28;20200;-63
2023/08/01 05:24:33;;;;;;;18.67;17.92;;;19.60;99.90;;;;;;5050571;28;20314;-64
2023/08/01 05:27:09;;;;;;;20.17;19.48;;;19.60;99.90;;;;;;5045830;28;20204;-63
2023/08/01 05:29:36;;;;;;;20.33;19.63;;;19.60;99.90;;;;;;5049419;28;20221;-64
2023/08/01 05:32:03;;;;;;;26.98;25.98;;;19.60;99.90;;;;;;5063694;28;20299;-64
2023/08/01 05:34:30;;;;;;;19.73;19.02;;;19.60;99.90;;;;;;5053244;28;20290;-65
2023/08/01 05:36:57;;;;;;;17.90;17.30;;;19.60;99.90;;;;;;5057128;28;20205;-64
2023/08/01 05:39:25;;;;;;;16.40;15.80;;;19.60;99.90;;;;;;5050980;28;20223;-64
2023/08/01 05:41:52;;;;;;;19.33;18.63;;;19.70;99.90;;;;;;5052768;28;20600;-64
2023/08/01 05:44:18;;;;;;;18.70;18.00;;;19.70;99.90;;;;;;5036292;28;20213;-64
2023/08/01 05:46:45;;;;;;;17.73;17.13;;;19.70;99.90;;;;;;5044895;28;20346;-65
2023/08/01 05:49:12;;;;;;;18.35;17.75;;;19.70;99.90;;;;;;5050245;28;20230;-65
2023/08/01 05:51:39;;;;;;;18.60;17.83;;;19.70;99.90;;;;;;5040550;28;20231;-65
2023/08/01 05:54:06;;;;;;;18.58;17.88;;;19.70;99.90;;;;;;5050251;28;20208;-65
2023/08/01 05:56:34;;;;;;;20.67;19.93;;;19.70;99.90;;;;;;5050960;28;20196;-67
2023/08/01 05:59:01;;;;;;;14.60;14.10;;;19.70;99.90;;;;;;5047519;28;20318;-66
2023/08/01 06:01:27;;;;;;;15.25;14.73;;;19.70;99.90;;;;;;5047542;28;20207;-65
2023/08/01 06:03:54;;;;;;;29.50;28.45;;;19.70;99.90;;;;;;5051955;28;20208;-65
2023/08/01 06:06:21;;;;;;;22.17;21.38;;;19.70;99.90;;;;;;5051931;28;20255;-65
2023/08/01 06:08:48;;;;;;;49.57;47.17;;;19.80;99.90;;;;;;5051829;28;20228;-66
2023/08/01 06:11:15;;;;;;;17.43;16.83;;;19.80;99.90;;;;;;5051520;28;20208;-65
2023/08/01 06:13:43;;;;;;;19.03;18.33;;;19.80;99.90;;;;;;5050953;28;20745;-66
2023/08/01 06:16:11;;;;;;;14.93;14.40;;;19.80;99.90;;;;;;5052517;28;20207;-65
2023/08/01 06:18:37;;;;;;;22.17;21.35;;;19.80;99.90;;;;;;5052449;28;20238;-64
2023/08/01 06:21:04;;;;;;;20.03;19.33;;;19.70;99.90;;;;;;5051586;28;20207;-64
2023/08/01 06:23:31;;;;;;;17.97;17.37;;;19.80;99.90;;;;;;5051985;28;20218;-66
2023/08/01 06:25:58;;;;;;;19.50;18.80;;;19.70;99.90;;;;;;5051676;28;20232;-65
2023/08/01 06:28:25;;;;;;;17.83;17.23;;;19.70;99.90;;;;;;5052615;28;20246;-65
2023/08/01 06:30:53;;;;;;;18.43;17.77;;;19.80;99.90;;;;;;5042486;28;20288;-66
2023/08/01 06:33:20;;;;;;;19.73;19.03;;;19.70;99.90;;;;;;5051188;28;20231;-66
2023/08/01 06:35:47;;;;;;;22.80;21.97;;;19.70;99.90;;;;;;5042966;28;20201;-66
2023/08/01 06:38:13;;;;;;;18.67;18.05;;;19.70;99.90;;;;;;5031116;28;20247;-66
2023/08/01 06:40:40;;;;;;;16.47;15.87;;;19.80;99.90;;;;;;5030628;28;20215;-66
2023/08/01 06:43:07;;;;;;;18.00;17.37;;;19.80;99.90;;;;;;5032333;28;20204;-67
2023/08/01 06:45:34;;;;;;;16.13;15.57;;;19.80;99.90;;;;;;5032168;28;20231;-65
2023/08/01 06:48:02;;;;;;;18.23;17.63;;;19.80;99.90;;;;;;5032200;28;20235;-66
2023/08/01 06:50:29;;;;;;;13.80;13.30;;;19.80;99.90;;;;;;5031941;28;20232;-66
2023/08/01 06:52:56;;;;;;;13.53;13.03;;;19.80;99.90;;;;;;5033205;28;20211;-64
2023/08/01 06:55:22;;;;;;;12.97;12.57;;;19.80;99.90;;;;;;5032401;28;20200;-64
2023/08/01 06:57:49;;;;;;;12.90;12.50;;;19.70;99.90;;;;;;5031447;28;20230;-64
2023/08/01 07:00:16;;;;;;;12.10;11.70;;;19.70;99.90;;;;;;5030283;28;20291;-64
2023/08/01 07:02:43;;;;;;;31.53;30.07;;;19.70;99.90;;;;;;5030974;28;20208;-67
2023/08/01 07:05:11;;;;;;;11.60;11.20;;;19.60;99.90;;;;;;5031376;28;20239;-67
2023/08/01 07:07:38;;;;;;;12.33;11.93;;;19.40;99.90;;;;;;5030887;28;20292;-64
2023/08/01 07:10:06;;;;;;;15.33;14.80;;;19.30;99.90;;;;;;5029697;28;20205;-66
2023/08/01 07:12:32;;;;;;;28.53;27.07;;;19.20;99.90;;;;;;5030529;28;20215;-66
2023/08/01 07:14:59;;;;;;;16.90;16.27;;;19.10;99.90;;;;;;5030322;28;20208;-66
2023/08/01 07:17:26;;;;;;;31.07;29.73;;;19.00;99.90;;;;;;5033214;28;20299;-66
2023/08/01 07:19:53;;;;;;;26.03;24.80;;;18.90;99.90;;;;;;5031986;28;20649;-65
2023/08/01 07:22:21;;;;;;;84.77;79.10;;;18.90;99.90;;;;;;5033352;28;20208;-65
2023/08/01 07:24:48;;;;;;;13.43;13.00;;;18.80;99.90;;;;;;5033286;28;20206;-66
2023/08/01 07:27:15;;;;;;;11.87;11.47;;;18.80;99.90;;;;;;5031945;28;20215;-65
2023/08/01 07:29:42;;;;;;;12.37;11.97;;;18.80;99.90;;;;;;5030645;28;20340;-65
2023/08/01 07:32:08;;;;;;;11.70;11.30;;;18.80;99.90;;;;;;5031655;28;20200;-66
2023/08/01 07:34:35;;;;;;;12.67;12.17;;;18.80;99.90;;;;;;5030728;28;20230;-65
2023/08/01 07:37:02;;;;;;;12.40;12.00;;;18.80;99.90;;;;;;5030972;28;20201;-65
2023/08/01 07:39:30;;;;;;;11.37;10.90;;;18.80;99.90;;;;;;5029397;28;20231;-67
2023/08/01 07:41:57;;;;;;;11.97;11.57;;;18.80;99.90;;;;;;5030611;28;20238;-66
2023/08/01 07:44:24;;;;;;;12.73;12.23;;;18.80;99.90;;;;;;5030292;28;20204;-67
2023/08/01 07:46:51;;;;;;;11.03;10.63;;;18.80;99.90;;;;;;5030486;28;20244;-66
2023/08/01 07:49:18;;;;;;;13.93;13.47;;;18.90;99.90;;;;;;5030214;28;20315;-67
2023/08/01 07:51:44;;;;;;;10.30;10.00;;;18.90;99.90;;;;;;5030102;28;20212;-64
2023/08/01 07:54:11;;;;;;;11.57;11.17;;;19.00;99.90;;;;;;5029808;28;20291;-66
2023/08/01 07:56:39;;;;;;;12.70;12.20;;;19.10;99.90;;;;;;5029858;28;20292;-65
2023/08/01 07:59:06;;;;;;;12.80;12.40;;;19.10;99.90;;;;;;5029126;28;20224;-65
2023/08/01 08:01:33;;;;;;;12.50;12.10;;;19.00;99.90;;;;;;5029900;28;20236;-67
2023/08/01 08:04:00;;;;;;;10.73;10.33;;;19.00;99.90;;;;;;5028486;28;20209;-66
2023/08/01 08:06:27;;;;;;;12.10;11.70;;;19.10;99.90;;;;;;5031305;28;20227;-66
2023/08/01 08:08:53;;;;;;;12.40;12.00;;;19.10;99.90;;;;;;5031033;28;20463;-65
2023/08/01 08:11:20;;;;;;;13.00;12.60;;;19.10;99.90;;;;;;5030433;28;20231;-66
2023/08/01 08:13:48;;;;;;;11.87;11.47;;;19.20;99.90;;;;;;5030994;28;20204;-65
2023/08/01 08:16:18;;;;;;;11.27;10.87;;;19.20;99.90;;;;;;5031518;28;20207;-65
2023/08/01 08:18:46;;;;;;;11.00;10.60;;;19.30;99.90;;;;;;5030190;28;20224;-65
2023/08/01 08:21:13;;;;;;;11.77;11.37;;;19.40;99.90;;;;;;5029067;28;20204;-66
2023/08/01 08:23:39;;;;;;;11.07;10.67;;;19.50;99.90;;;;;;5029373;28;20204;-65
2023/08/01 08:26:07;;;;;;;11.17;10.77;;;19.50;99.90;;;;;;5030158;28;20231;-65
2023/08/01 08:28:34;;;;;;;11.00;10.60;;;19.50;99.90;;;;;;5029443;28;20290;-64
2023/08/01 08:31:03;;;;;;;10.20;9.90;;;19.50;99.90;;;;;;5028965;28;20236;-65
2023/08/01 08:33:30;;;;;;;10.98;10.57;;;19.60;99.90;;;;;;5029424;28;20274;-65
2023/08/01 08:35:57;;;;;;;11.37;10.97;;;19.60;99.90;;;;;;5029782;28;20203;-65
2023/08/01 08:38:24;;;;;;;10.93;10.52;;;19.70;99.90;;;;;;5032333;28;20240;-65
2023/08/01 08:41:04;;;;;;;10.63;10.33;;;19.70;99.90;;;;;;5030525;28;20205;-65
2023/08/01 08:43:32;;;;;;;11.90;11.50;;;19.70;99.90;;;;;;5029846;28;20193;-65
2023/08/01 08:46:05;;;;;;;11.48;11.07;;;19.80;99.90;;;;;;5030093;28;20710;-65
2023/08/01 08:48:33;;;;;;;11.30;10.90;;;19.80;99.90;;;;;;5029840;28;20260;-66
2023/08/01 08:51:01;;;;;;;10.23;9.93;;;19.90;99.90;;;;;;5029203;28;20205;-66
2023/08/01 08:53:28;;;;;;;11.20;10.80;;;19.90;99.90;;;;;;5029691;28;20204;-65
2023/08/01 08:55:55;;;;;;;12.77;12.32;;;19.90;99.90;;;;;;5029618;28;20200;-65
2023/08/01 08:58:23;;;;;;;10.60;10.25;;;19.90;99.90;;;;;;5029111;28;20225;-66
2023/08/01 09:00:50;;;;;;;10.47;10.17;;;19.80;99.90;;;;;;5028402;28;20224;-66
2023/08/01 09:03:19;;;;;;;10.98;10.57;;;19.90;99.90;;;;;;5029482;28;20204;-65
2023/08/01 09:05:50;;;;;;;13.30;12.80;;;20.00;99.90;;;;;;5029517;28;20243;-65
2023/08/01 09:08:20;;;;;;;11.13;10.73;;;20.00;99.90;;;;;;5029817;28;20225;-66
2023/08/01 09:10:47;;;;;;;10.47;10.07;;;19.90;99.90;;;;;;5028593;28;20204;-65
2023/08/01 09:13:14;;;;;;;13.60;13.10;;;19.90;99.90;;;;;;5029269;28;20303;-65
2023/08/01 09:15:42;;;;;;;10.80;10.40;;;19.90;99.90;;;;;;5029057;28;20227;-65
2023/08/01 09:18:09;;;;;;;11.53;11.13;;;19.90;99.90;;;;;;5027909;28;20229;-64
2023/08/01 09:20:46;;;;;;;10.97;10.57;;;19.80;99.90;;;;;;5029564;28;20211;-65
2023/08/01 09:23:14;;;;;;;11.83;11.43;;;19.80;99.90;;;;;;5030726;28;20200;-65
2023/08/01 09:25:41;;;;;;;11.80;11.40;;;19.70;99.90;;;;;;5030220;28;20770;-66
2023/08/01 09:28:19;;;;;;;10.80;10.40;;;19.80;99.90;;;;;;5029793;28;20714;-66
2023/08/01 09:30:50;;;;;;;23.17;21.83;;;19.70;99.90;;;;;;5029879;28;20208;-65
2023/08/01 09:33:17;;;;;;;10.38;10.07;;;19.70;99.90;;;;;;5031324;28;20209;-65
2023/08/01 09:35:46;;;;;;;11.27;10.87;;;19.70;99.90;;;;;;5033888;28;20208;-65
2023/08/01 09:38:16;;;;;;;9.93;9.63;;;19.70;99.90;;;;;;5033925;28;20220;-65
2023/08/01 09:40:45;;;;;;;10.87;10.47;;;19.70;99.90;;;;;;5032797;28;20287;-65
2023/08/01 09:43:12;;;;;;;10.63;10.30;;;19.70;99.90;;;;;;5033203;28;20208;-66
2023/08/01 09:45:50;;;;;;;67.30;63.37;;;19.70;99.90;;;;;;5032560;28;20200;-66
2023/08/01 09:48:25;;;;;;;12.53;12.13;;;19.60;99.90;;;;;;5032748;28;20596;-65
2023/08/01 09:51:04;;;;;;;10.77;10.37;;;19.40;99.90;;;;;;5031562;28;20216;-65
2023/08/01 09:53:31;;;;;;;10.90;10.50;;;19.50;99.90;;;;;;5032318;28;20210;-65
2023/08/01 09:56:00;;;;;;;11.43;11.03;;;19.80;99.90;;;;;;5032310;28;20207;-65
2023/08/01 09:58:32;;;;;;;11.40;11.00;;;20.20;99.90;;;;;;5032210;28;20619;-65
2023/08/01 10:01:00;;;;;;;10.40;10.10;;;20.60;99.90;;;;;;5031935;28;20284;-64
2023/08/01 10:03:28;;;;;;;10.83;10.43;;;20.70;99.90;;;;;;5034373;28;20196;-65
2023/08/01 10:05:57;;;;;;;10.30;9.90;;;21.00;99.90;;;;;;5035088;28;20211;-64
2023/08/01 10:08:25;;;;;;;10.90;10.50;;;21.30;99.90;;;;;;5032408;28;20230;-65
2023/08/01 10:10:56;;;;;;;11.27;10.87;;;21.50;99.90;;;;;;5041279;28;20225;-65
2023/08/01 10:13:25;;;;;;;11.88;11.48;;;21.60;99.90;;;;;;5042690;28;20199;-65
2023/08/01 10:15:52;;;;;;;10.52;10.20;;;21.50;99.90;;;;;;5050691;28;20292;-65
2023/08/01 10:18:19;;;;;;;53.22;50.97;;;21.80;99.90;;;;;;5042414;28;20254;-64
2023/08/01 10:20:47;;;;;;;11.33;10.93;;;22.00;99.90;;;;;;5042789;28;20203;-65
2023/08/01 10:23:15;;;;;;;16.67;16.07;;;22.20;99.90;;;;;;5042685;28;20201;-65
2023/08/01 10:25:43;;;;;;;65.33;62.00;;;22.20;99.90;;;;;;5041880;28;20196;-65
2023/08/01 10:28:10;;;;;;;19.07;18.40;;;21.80;99.90;;;;;;5042685;28;20254;-65
2023/08/01 10:30:37;;;;;;;15.98;15.40;;;21.70;99.90;;;;;;5041077;28;20200;-65
2023/08/01 10:33:04;;;;;;;18.20;17.53;;;21.50;99.90;;;;;;5041593;28;20197;-65
2023/08/01 10:35:36;;;;;;;34.87;33.43;;;21.40;99.90;;;;;;5040372;28;20203;-65
2023/08/01 10:38:07;;;;;;;30.93;29.77;;;21.40;99.90;;;;;;5041405;28;20503;-65
2023/08/01 10:40:37;;;;;;;20.20;19.50;;;21.30;99.90;;;;;;5040251;28;20543;-65
2023/08/01 10:43:04;;;;;;;31.33;30.17;;;21.20;99.90;;;;;;5040559;28;20685;-65
2023/08/01 10:45:31;;;;;;;88.80;84.20;;;21.40;99.90;;;;;;5041911;28;20201;-65
2023/08/01 10:48:08;;;;;;;22.63;21.83;;;21.90;99.90;;;;;;5041899;28;20224;-64
2023/08/01 10:50:35;;;;;;;67.20;64.13;;;22.40;99.90;;;;;;5040894;28;20222;-66
2023/08/01 10:53:04;;;;;;;42.08;40.40;;;22.60;99.90;;;;;;5038988;28;20215;-65
2023/08/01 10:55:44;;;;;;;161.90;153.43;;;22.30;99.90;;;;;;5040487;28;20204;-65
2023/08/01 10:58:11;;;;;;;38.73;37.20;;;21.70;99.90;;;;;;5041713;28;20693;-65
2023/08/01 11:00:40;;;;;;;121.33;115.40;;;21.50;99.90;;;;;;5039049;28;20220;-65
2023/08/01 11:03:06;;;;;;;27.08;26.13;;;21.50;99.90;;;;;;5041119;28;20306;-63
2023/08/01 11:05:33;;;;;;;64.20;61.30;;;22.00;99.90;;;;;;5039134;28;20207;-67
2023/08/01 11:08:02;;;;;;;51.95;49.78;;;22.20;99.90;;;;;;5034044;28;20243;-65
2023/08/01 11:10:29;;;;;;;25.43;24.53;;;22.20;99.90;;;;;;5042634;28;20228;-66
2023/08/01 11:12:58;;;;;;;36.20;34.90;;;22.20;99.90;;;;;;5040645;28;20581;-65
2023/08/01 11:15:25;;;;;;;23.88;23.08;;;22.40;99.90;;;;;;5044822;28;21399;-64
2023/08/01 11:17:54;;;;;;;26.10;25.20;;;22.50;99.90;;;;;;5045937;28;20238;-64
2023/08/01 11:20:23;;;;;;;24.03;23.20;;;22.60;99.90;;;;;;5042929;28;20204;-64
2023/08/01 11:22:52;;;;;;;25.57;24.67;;;22.60;99.90;;;;;;5042217;28;20203;-64
2023/08/01 11:25:19;;;;;;;23.13;22.23;;;22.60;99.90;;;;;;5039528;28;20278;-64
2023/08/01 11:27:46;;;;;;;22.80;22.00;;;22.50;99.90;;;;;;5039500;28;20217;-65
2023/08/01 11:30:14;;;;;;;28.77;27.73;;;22.60;99.90;;;;;;5038259;28;20226;-66
2023/08/01 11:32:41;;;;;;;28.63;27.63;;;22.40;99.90;;;;;;5040087;28;20207;-65
2023/08/01 11:35:08;;;;;;;20.45;19.73;;;22.20;99.90;;;;;;5040092;28;20625;-66
2023/08/01 11:37:36;;;;;;;27.88;26.88;;;22.10;99.90;;;;;;5040451;28;20286;-66
2023/08/01 11:40:04;;;;;;;22.80;22.00;;;22.00;99.90;;;;;;5038561;28;20207;-65
2023/08/01 11:42:33;;;;;;;24.90;24.00;;;22.00;99.90;;;;;;5038689;28;20197;-65
2023/08/01 11:45:11;;;;;;;18.97;18.37;;;22.10;99.90;;;;;;5039496;28;20289;-65
2023/08/01 11:47:46;;;;;;;32.75;31.50;;;22.10;99.90;;;;;;5038584;28;20256;-65
2023/08/01 11:50:12;;;;;;;38.83;37.28;;;22.20;99.90;;;;;;5037255;28;20670;-64
2023/08/01 11:52:39;;;;;;;21.58;20.77;;;22.10;99.90;;;;;;5039435;28;20193;-66
2023/08/01 11:55:07;;;;;;;17.67;17.07;;;22.10;99.90;;;;;;5040511;28;20601;-64
2023/08/01 11:57:34;;;;;;;24.67;23.77;;;22.10;99.90;;;;;;5037067;28;20275;-64
2023/08/01 12:00:00;;;;;;;21.55;20.77;;;22.10;99.90;;;;;;5038841;28;20204;-64
2023/08/01 12:02:29;;;;;;;20.60;19.83;;;22.20;99.90;;;;;;5040549;28;20196;-64
2023/08/01 12:04:57;;;;;;;15.88;15.38;;;22.30;99.90;;;;;;5038991;28;20270;-64
2023/08/01 12:07:26;;;;;;;18.13;17.52;;;22.50;99.90;;;;;;5036994;28;20255;-65
2023/08/01 12:09:57;;;;;;;16.73;16.13;;;22.60;99.90;;;;;;5039604;28;20647;-65
2023/08/01 12:12:24;;;;;;;17.10;16.50;;;22.70;99.90;;;;;;5040382;28;20346;-66
2023/08/01 12:14:52;;;;;;;16.50;15.93;;;22.90;99.90;;;;;;5038459;28;20200;-66
2023/08/01 12:17:19;;;;;;;15.85;15.35;;;23.00;99.90;;;;;;5038054;28;20200;-66
2023/08/01 12:19:46;;;;;;;15.73;15.23;;;23.10;99.90;;;;;;5037035;28;20246;-66
2023/08/01 12:22:15;;;;;;;17.58;16.98;;;23.20;99.90;;;;;;5039385;28;20204;-67
2023/08/01 12:24:42;;;;;;;17.83;17.23;;;23.30;99.90;;;;;;5035774;28;20547;-66
2023/08/01 12:27:09;;;;;;;14.10;13.60;;;23.30;99.90;;;;;;5043836;28;20228;-67
2023/08/01 12:29:36;;;;;;;16.88;16.25;;;23.40;99.90;;;;;;5000133;28;1060811;-64